Map

Track Data

SID SEASON NUMBER BASIN SUBBASIN NAME ISO_TIME NATURE LAT LON WMO_WIND WMO_PRES WMO_AGENCY TRACK_TYPE DIST2LAND LANDFALL IFLAG USA_AGENCY USA_ATCF_ID USA_LAT USA_LON USA_RECORD USA_STATUS USA_WIND USA_PRES USA_SSHS USA_R34_NE USA_R34_SE USA_R34_SW USA_R34_NW USA_R50_NE USA_R50_SE USA_R50_SW USA_R50_NW USA_R64_NE USA_R64_SE USA_R64_SW USA_R64_NW USA_POCI USA_ROCI USA_RMW USA_EYE TOKYO_LAT TOKYO_LON TOKYO_GRADE TOKYO_WIND TOKYO_PRES TOKYO_R50_DIR TOKYO_R50_LONG TOKYO_R50_SHORT TOKYO_R30_DIR TOKYO_R30_LONG TOKYO_R30_SHORT TOKYO_LAND CMA_LAT CMA_LON CMA_CAT CMA_WIND CMA_PRES HKO_LAT HKO_LON HKO_CAT HKO_WIND HKO_PRES NEWDELHI_LAT NEWDELHI_LON NEWDELHI_GRADE NEWDELHI_WIND NEWDELHI_PRES NEWDELHI_CI NEWDELHI_DP NEWDELHI_POCI REUNION_LAT REUNION_LON REUNION_TYPE REUNION_WIND REUNION_PRES REUNION_TNUM REUNION_CI REUNION_RMW REUNION_R34_NE REUNION_R34_SE REUNION_R34_SW REUNION_R34_NW REUNION_R50_NE REUNION_R50_SE REUNION_R50_SW REUNION_R50_NW REUNION_R64_NE REUNION_R64_SE REUNION_R64_SW REUNION_R64_NW BOM_LAT BOM_LON BOM_TYPE BOM_WIND BOM_PRES BOM_TNUM BOM_CI BOM_RMW BOM_R34_NE BOM_R34_SE BOM_R34_SW BOM_R34_NW BOM_R50_NE BOM_R50_SE BOM_R50_SW BOM_R50_NW BOM_R64_NE BOM_R64_SE BOM_R64_SW BOM_R64_NW BOM_ROCI BOM_POCI BOM_EYE BOM_POS_METHOD BOM_PRES_METHOD NADI_LAT NADI_LON NADI_CAT NADI_WIND NADI_PRES WELLINGTON_LAT WELLINGTON_LON WELLINGTON_WIND WELLINGTON_PRES DS824_LAT DS824_LON DS824_STAGE DS824_WIND DS824_PRES TD9636_LAT TD9636_LON TD9636_STAGE TD9636_WIND TD9636_PRES TD9635_LAT TD9635_LON TD9635_WIND TD9635_PRES TD9635_ROCI NEUMANN_LAT NEUMANN_LON NEUMANN_CLASS NEUMANN_WIND NEUMANN_PRES MLC_LAT MLC_LON MLC_CLASS MLC_WIND MLC_PRES USA_GUST BOM_GUST BOM_GUST_PER REUNION_GUST REUNION_GUST_PER USA_SEAHGT USA_SEARAD_NE USA_SEARAD_SE USA_SEARAD_SW USA_SEARAD_NW STORM_SPEED STORM_DIR
1926042S14062 1926 13 SI MM NOT_NAMED 1926-02-11 06:00:00 NR -13.6000 62.2000 reunion main 870 870 _____O________ -1 -13.6000 62.2000 99 9.90000 2 336
1926042S14062 1926 13 SI MM NOT_NAMED 1926-02-11 09:00:00 NR -13.4919 62.1372 main 874 874 _____P________ -1 -13.4919 62.1372 99 2 329
1926042S14062 1926 13 SI MM NOT_NAMED 1926-02-11 12:00:00 NR -13.4084 62.0793 main 884 878 _____P________ -1 -13.4084 62.0793 99 2 318
1926042S14062 1926 13 SI MM NOT_NAMED 1926-02-11 15:00:00 NR -13.3740 62.0310 main 878 878 _____P________ -1 -13.3740 62.0310 99 1 266
1926042S14062 1926 13 SI MM NOT_NAMED 1926-02-11 18:00:00 NR -13.4134 61.9970 main 878 868 _____P________ -1 -13.4134 61.9970 99 2 193
1926042S14062 1926 13 SI MM NOT_NAMED 1926-02-11 21:00:00 NR -13.5509 61.9821 main 859 840 _____P________ -1 -13.5509 61.9821 99 4 0
1926042S14062 1926 13 SI MM NOT_NAMED 1926-02-12 00:00:00 NR -13.8113 61.9910 main 840 802 _____P________ -1 -13.8113 61.9910 99 7 177
1926042S14062 1926 13 SI MM NOT_NAMED 1926-02-12 03:00:00 NR -14.2193 62.0286 main 802 754 _____P________ -1 -14.2193 62.0286 99 10 174
1926042S14062 1926 13 SI MM NOT_NAMED 1926-02-12 06:00:00 NR -14.8000 62.1000 reunion main 754 701 _____O________ -1 -14.8000 62.1000 99 9.90000 14 173
1926042S14062 1926 13 SI MM NOT_NAMED 1926-02-12 09:00:00 NR -15.5662 62.2084 main 693 638 _____P________ -1 -15.5662 62.2084 99 17 172
1926042S14062 1926 13 SI MM NOT_NAMED 1926-02-12 12:00:00 NR -16.4813 62.3484 main 630 588 _____P________ -1 -16.4813 62.3484 99 20 171
1926042S14062 1926 13 SI MM NOT_NAMED 1926-02-12 15:00:00 NR -17.4955 62.5124 main 582 551 _____P________ -1 -17.4955 62.5124 99 21 171
1926042S14062 1926 13 SI MM NOT_NAMED 1926-02-12 18:00:00 NR -18.5589 62.6924 main 547 532 _____P________ -1 -18.5589 62.6924 99 22 171
1926042S14062 1926 13 SI MM NOT_NAMED 1926-02-12 21:00:00 NR -19.6211 62.8800 main 538 533 _____P________ -1 -19.6211 62.8800 99 21 170
1926042S14062 1926 13 SI MM NOT_NAMED 1926-02-13 00:00:00 NR -20.6319 63.0667 main 553 553 _____P________ -1 -20.6319 63.0667 99 20 170
1926042S14062 1926 13 SI MM NOT_NAMED 1926-02-13 03:00:00 NR -21.5413 63.2432 main 576 576 _____P________ -1 -21.5413 63.2432 99 17 169
1926042S14062 1926 13 SI MM NOT_NAMED 1926-02-13 06:00:00 NR -22.3000 63.4000 reunion main 621 621 _____O________ -1 -22.3000 63.4000 99 9.90000 14 169
1926042S14062 1926 13 SI MM NOT_NAMED 1926-02-13 09:00:00 NR -22.8715 63.5295 main 656 656 _____P________ -1 -22.8715 63.5295 99 10 168
1926042S14062 1926 13 SI MM NOT_NAMED 1926-02-13 12:00:00 NR -23.2689 63.6327 main 684 684 _____P________ -1 -23.2689 63.6327 99 7 165
1926042S14062 1926 13 SI MM NOT_NAMED 1926-02-13 15:00:00 NR -23.5176 63.7129 main 703 703 _____P________ -1 -23.5176 63.7129 99 4 161
1926042S14062 1926 13 SI MM NOT_NAMED 1926-02-13 18:00:00 NR -23.6425 63.7738 main 717 717 _____P________ -1 -23.6425 63.7738 99 2 146
1926042S14062 1926 13 SI MM NOT_NAMED 1926-02-13 21:00:00 NR -23.6685 63.8191 main 722 717 _____P________ -1 -23.6685 63.8191 99 1 71
1926042S14062 1926 13 SI MM NOT_NAMED 1926-02-14 00:00:00 NR -23.6203 63.8526 main 726 721 _____P________ -1 -23.6203 63.8526 99 2 23
1926042S14062 1926 13 SI MM NOT_NAMED 1926-02-14 03:00:00 NR -23.5226 63.8783 main 721 716 _____P________ -1 -23.5226 63.8783 99 2 10
1926042S14062 1926 13 SI MM NOT_NAMED 1926-02-14 06:00:00 NR -23.4000 63.9000 reunion main 716 _____O________ -1 -23.4000 63.9000 99 9.90000 2 12

About IBTrACS Database

This database is a web-friendly format of International Best Track Archive for Climate Stewardship (IBTrACS), a global best track data archive curated by NOAA dating back to 1842.

Updated: 2021-12-03